Boone, CO

4:58 AM MDT on July 05, 2015 (GMT -0600)
21 Miles NE of Airport | | Change Station
CLOSE
Current Station
Personal Weather Station
Location: Pueblo, CO
Elevation: 5000 ft
Nearby Weather Stations
Active Advisory: Flood Warning

Elev 5000 ft 38.45 °N, 104.34 °W | Updated 1 minute ago

Clear
Clear
57.2 °F
Feels Like 57.2 °F
N
4.0
Wind Variable Wind from NNE
Gusts 5.0 mph

Today
High -- | Low -- °F
--% Chance of Precip.
Yesterday
High -- | Low -- °F
Precip. -- in
5:38 AM 8:24 PM
Waning Gibbous, 85% visible
Pressure 29.75 in
Visibility 10.0 miles
Clouds Clear
Dew Point 52 °F
Humidity 83%
Rainfall 0.00 in
Snow Depth Not available.
UV 0 out of 12
Pollen 5.70 out of 12
Air Quality Not available.
Flu Activity Not available.
METAR KPUB 051053Z AUTO 26008KT 10SM CLR 17/13 A2995 RMK AO2 SLP075 T01670128

More Conditions Fewer Conditions

Pressure 29.75 in
Visibility 10.0 miles
Clouds Clear
Dew Point 52 °F
Humidity 83%
Rainfall 0.00 in
Snow Depth Not available.
UV 0 out of 12
Pollen 5.70 out of 12
Air Quality Not available.
Flu Activity Not available.
METAR KPUB 051053Z AUTO 26008KT 10SM CLR 17/13 A2995 RMK AO2 SLP075 T01670128

More Conditions Fewer Conditions

10-Day Weather Forecast

×

Almanac

Astronomy

Jul. 05, 2015 Rise Set
Actual Time
Civil Twilight
Nautical Twilight
Astronomical Twilight
Moon
Length of Visible Light
Length of Day
Tomorrow will be .
, % of the Moon is Illuminated

Today's Extremes

State Highs State Lows

Community

WunderPhotos

Upload Photos

1,835,229 photos uploaded!

WunderBlogs® & News

Nearby

Air Quality

  Air Quality AQ Index Pollutant
Not available.

Snow Depth

Station Depth Elevation

Earthquake Activity

City Distance Mag. Time & Date
Minimum magnitude displayed is 2.5.

Coastal Water Temperatures

Place Temperature

Stations

Nearby Weather Stations

Station Location Temp. Windchill Dew Point Humidity Wind Precip. Elev Updated Type
                   
Flood Warning
Statement as of 11:26 PM MDT on July 04, 2015

The Flood Warning continues for
the Arkansas River near Avondale.
* Until Sunday afternoon... or until the warning is cancelled.
* At 11:15 PM Saturday the stage was 6.9 feet.
* Flood stage is 7.0 feet.
* Forecast... the river is expected to rise to near flood stage after
midnight tonight.
* Impact... at 7.0 feet... minor lowland flooding occurs near Avondale.


Lat... Lon 3829 10441 3829 10434 3827 10425 3820 10425
      3822 10434 3822 10441